sensor_id;sensor_type;location;lat;lon;timestamp;P1;durP1;ratioP1;P2;durP2;ratioP2
2119;SDS011;1066;52.540;13.420;2022-07-22T00:02:11;8.63;;;7.23;;
2119;SDS011;1066;52.540;13.420;2022-07-22T00:04:37;8.00;;;7.27;;
2119;SDS011;1066;52.540;13.420;2022-07-22T00:07:02;8.37;;;7.70;;
2119;SDS011;1066;52.540;13.420;2022-07-22T00:09:27;7.80;;;7.10;;
2119;SDS011;1066;52.540;13.420;2022-07-22T00:11:52;7.70;;;7.10;;
2119;SDS011;1066;52.540;13.420;2022-07-22T00:14:17;7.70;;;7.10;;
2119;SDS011;1066;52.540;13.420;2022-07-22T00:16:43;7.97;;;7.37;;
2119;SDS011;1066;52.540;13.420;2022-07-22T00:19:08;7.50;;;6.90;;
2119;SDS011;1066;52.540;13.420;2022-07-22T00:21:33;7.30;;;6.70;;
2119;SDS011;1066;52.540;13.420;2022-07-22T00:23:59;6.73;;;6.13;;
2119;SDS011;1066;52.540;13.420;2022-07-22T00:26:24;7.20;;;6.60;;
2119;SDS011;1066;52.540;13.420;2022-07-22T00:28:49;8.53;;;6.23;;
2119;SDS011;1066;52.540;13.420;2022-07-22T00:31:15;6.67;;;6.07;;
2119;SDS011;1066;52.540;13.420;2022-07-22T00:33:40;8.00;;;6.90;;
2119;SDS011;1066;52.540;13.420;2022-07-22T00:36:06;19.63;;;17.87;;
2119;SDS011;1066;52.540;13.420;2022-07-22T00:38:32;19.10;;;17.13;;
2119;SDS011;1066;52.540;13.420;2022-07-22T00:40:57;12.87;;;11.67;;
2119;SDS011;1066;52.540;13.420;2022-07-22T00:43:22;12.97;;;11.70;;
2119;SDS011;1066;52.540;13.420;2022-07-22T00:45:47;14.53;;;11.37;;
2119;SDS011;1066;52.540;13.420;2022-07-22T00:48:13;19.67;;;17.87;;
2119;SDS011;1066;52.540;13.420;2022-07-22T00:50:38;15.27;;;13.80;;
2119;SDS011;1066;52.540;13.420;2022-07-22T00:53:03;13.83;;;12.50;;
2119;SDS011;1066;52.540;13.420;2022-07-22T00:55:29;12.67;;;11.47;;
2119;SDS011;1066;52.540;13.420;2022-07-22T00:57:54;26.27;;;23.67;;
2119;SDS011;1066;52.540;13.420;2022-07-22T01:00:20;15.07;;;12.97;;
2119;SDS011;1066;52.540;13.420;2022-07-22T01:02:46;18.37;;;16.57;;
2119;SDS011;1066;52.540;13.420;2022-07-22T01:05:11;17.80;;;16.00;;
2119;SDS011;1066;52.540;13.420;2022-07-22T01:07:37;15.73;;;13.73;;
2119;SDS011;1066;52.540;13.420;2022-07-22T01:10:02;10.70;;;9.73;;
2119;SDS011;1066;52.540;13.420;2022-07-22T01:12:28;12.93;;;10.87;;
2119;SDS011;1066;52.540;13.420;2022-07-22T01:14:53;12.00;;;10.90;;
2119;SDS011;1066;52.540;13.420;2022-07-22T01:17:18;10.20;;;9.33;;
2119;SDS011;1066;52.540;13.420;2022-07-22T01:19:43;10.93;;;9.93;;
2119;SDS011;1066;52.540;13.420;2022-07-22T01:22:08;9.37;;;8.43;;
2119;SDS011;1066;52.540;13.420;2022-07-22T01:24:34;24.40;;;22.00;;
2119;SDS011;1066;52.540;13.420;2022-07-22T01:26:59;28.27;;;23.57;;
2119;SDS011;1066;52.540;13.420;2022-07-22T01:29:24;16.80;;;14.60;;
2119;SDS011;1066;52.540;13.420;2022-07-22T01:31:50;14.73;;;13.27;;
2119;SDS011;1066;52.540;13.420;2022-07-22T01:34:15;14.77;;;13.37;;
2119;SDS011;1066;52.540;13.420;2022-07-22T01:36:40;13.57;;;12.27;;
2119;SDS011;1066;52.540;13.420;2022-07-22T01:39:05;11.37;;;10.33;;
2119;SDS011;1066;52.540;13.420;2022-07-22T01:41:31;12.60;;;11.50;;
2119;SDS011;1066;52.540;13.420;2022-07-22T01:43:57;11.47;;;10.37;;
2119;SDS011;1066;52.540;13.420;2022-07-22T01:46:22;11.40;;;10.30;;
2119;SDS011;1066;52.540;13.420;2022-07-22T01:48:48;10.00;;;9.10;;
2119;SDS011;1066;52.540;13.420;2022-07-22T01:51:14;9.23;;;8.33;;
2119;SDS011;1066;52.540;13.420;2022-07-22T01:53:39;9.57;;;8.67;;
2119;SDS011;1066;52.540;13.420;2022-07-22T01:56:05;15.90;;;13.57;;
2119;SDS011;1066;52.540;13.420;2022-07-22T01:58:30;30.70;;;27.37;;
2119;SDS011;1066;52.540;13.420;2022-07-22T02:00:55;19.50;;;17.60;;
2119;SDS011;1066;52.540;13.420;2022-07-22T02:03:20;14.83;;;13.43;;
2119;SDS011;1066;52.540;13.420;2022-07-22T02:05:46;15.90;;;14.40;;
2119;SDS011;1066;52.540;13.420;2022-07-22T02:08:11;24.60;;;21.13;;
2119;SDS011;1066;52.540;13.420;2022-07-22T02:10:37;26.57;;;23.70;;
2119;SDS011;1066;52.540;13.420;2022-07-22T02:13:02;22.97;;;19.67;;
2119;SDS011;1066;52.540;13.420;2022-07-22T02:15:28;19.93;;;17.90;;
2119;SDS011;1066;52.540;13.420;2022-07-22T02:17:54;25.17;;;22.57;;
2119;SDS011;1066;52.540;13.420;2022-07-22T02:20:19;32.87;;;29.10;;
2119;SDS011;1066;52.540;13.420;2022-07-22T02:22:45;23.70;;;21.23;;
2119;SDS011;1066;52.540;13.420;2022-07-22T02:25:10;25.40;;;22.87;;
2119;SDS011;1066;52.540;13.420;2022-07-22T02:27:36;19.57;;;17.67;;
2119;SDS011;1066;52.540;13.420;2022-07-22T02:30:01;18.27;;;16.43;;
2119;SDS011;1066;52.540;13.420;2022-07-22T02:32:27;19.63;;;17.37;;
2119;SDS011;1066;52.540;13.420;2022-07-22T02:34:52;16.13;;;14.43;;
2119;SDS011;1066;52.540;13.420;2022-07-22T02:37:17;17.40;;;15.60;;
2119;SDS011;1066;52.540;13.420;2022-07-22T02:39:42;13.90;;;12.33;;
2119;SDS011;1066;52.540;13.420;2022-07-22T02:42:08;14.40;;;13.03;;
2119;SDS011;1066;52.540;13.420;2022-07-22T02:44:33;26.60;;;22.83;;
2119;SDS011;1066;52.540;13.420;2022-07-22T02:46:58;24.60;;;21.80;;
2119;SDS011;1066;52.540;13.420;2022-07-22T02:49:23;13.10;;;11.50;;
2119;SDS011;1066;52.540;13.420;2022-07-22T02:51:48;22.43;;;20.03;;
2119;SDS011;1066;52.540;13.420;2022-07-22T02:54:14;22.90;;;20.13;;
2119;SDS011;1066;52.540;13.420;2022-07-22T02:56:39;22.63;;;20.03;;
2119;SDS011;1066;52.540;13.420;2022-07-22T02:59:04;24.90;;;22.00;;
2119;SDS011;1066;52.540;13.420;2022-07-22T03:01:29;20.30;;;17.90;;
2119;SDS011;1066;52.540;13.420;2022-07-22T03:03:55;23.90;;;20.00;;
2119;SDS011;1066;52.540;13.420;2022-07-22T03:06:20;17.10;;;15.30;;
2119;SDS011;1066;52.540;13.420;2022-07-22T03:08:46;23.67;;;21.47;;
2119;SDS011;1066;52.540;13.420;2022-07-22T03:11:11;53.37;;;41.50;;
2119;SDS011;1066;52.540;13.420;2022-07-22T03:13:36;30.40;;;26.43;;
2119;SDS011;1066;52.540;13.420;2022-07-22T03:16:02;27.00;;;24.20;;
2119;SDS011;1066;52.540;13.420;2022-07-22T03:18:27;22.70;;;20.03;;
2119;SDS011;1066;52.540;13.420;2022-07-22T03:20:52;19.80;;;17.80;;
2119;SDS011;1066;52.540;13.420;2022-07-22T03:23:17;22.27;;;19.90;;
2119;SDS011;1066;52.540;13.420;2022-07-22T03:25:43;19.67;;;17.57;;
2119;SDS011;1066;52.540;13.420;2022-07-22T03:28:08;18.90;;;17.00;;
2119;SDS011;1066;52.540;13.420;2022-07-22T03:30:33;14.80;;;13.40;;
2119;SDS011;1066;52.540;13.420;2022-07-22T03:32:58;17.97;;;16.20;;
2119;SDS011;1066;52.540;13.420;2022-07-22T03:35:24;13.37;;;12.03;;
2119;SDS011;1066;52.540;13.420;2022-07-22T03:37:49;16.40;;;14.70;;
2119;SDS011;1066;52.540;13.420;2022-07-22T03:40:14;13.70;;;12.50;;
2119;SDS011;1066;52.540;13.420;2022-07-22T03:42:40;13.30;;;12.00;;
2119;SDS011;1066;52.540;13.420;2022-07-22T03:45:06;13.30;;;11.90;;
2119;SDS011;1066;52.540;13.420;2022-07-22T03:47:31;14.37;;;12.97;;
2119;SDS011;1066;52.540;13.420;2022-07-22T03:49:56;11.27;;;10.27;;
2119;SDS011;1066;52.540;13.420;2022-07-22T03:52:23;11.10;;;10.20;;
2119;SDS011;1066;52.540;13.420;2022-07-22T03:54:48;11.00;;;9.90;;
2119;SDS011;1066;52.540;13.420;2022-07-22T03:57:13;13.30;;;12.10;;
2119;SDS011;1066;52.540;13.420;2022-07-22T03:59:39;12.30;;;11.10;;
2119;SDS011;1066;52.540;13.420;2022-07-22T04:02:04;13.17;;;11.87;;
2119;SDS011;1066;52.540;13.420;2022-07-22T04:04:29;11.90;;;10.90;;
2119;SDS011;1066;52.540;13.420;2022-07-22T04:06:54;13.33;;;12.17;;
2119;SDS011;1066;52.540;13.420;2022-07-22T04:09:20;17.67;;;14.70;;
2119;SDS011;1066;52.540;13.420;2022-07-22T04:11:46;25.33;;;22.73;;
2119;SDS011;1066;52.540;13.420;2022-07-22T04:14:11;18.97;;;17.00;;
2119;SDS011;1066;52.540;13.420;2022-07-22T04:16:36;16.50;;;14.93;;
2119;SDS011;1066;52.540;13.420;2022-07-22T04:19:02;24.47;;;22.07;;
2119;SDS011;1066;52.540;13.420;2022-07-22T04:21:27;18.20;;;16.50;;
2119;SDS011;1066;52.540;13.420;2022-07-22T04:23:53;16.10;;;14.53;;
2119;SDS011;1066;52.540;13.420;2022-07-22T04:26:18;15.07;;;13.70;;
2119;SDS011;1066;52.540;13.420;2022-07-22T04:28:43;16.47;;;14.87;;
2119;SDS011;1066;52.540;13.420;2022-07-22T04:31:09;14.97;;;13.67;;
2119;SDS011;1066;52.540;13.420;2022-07-22T04:33:34;17.47;;;15.70;;
2119;SDS011;1066;52.540;13.420;2022-07-22T04:35:59;21.40;;;19.13;;
2119;SDS011;1066;52.540;13.420;2022-07-22T04:38:24;19.90;;;17.90;;
2119;SDS011;1066;52.540;13.420;2022-07-22T04:40:50;17.50;;;15.90;;
2119;SDS011;1066;52.540;13.420;2022-07-22T04:43:15;15.10;;;13.63;;
2119;SDS011;1066;52.540;13.420;2022-07-22T04:45:40;18.17;;;16.47;;
2119;SDS011;1066;52.540;13.420;2022-07-22T04:48:06;19.17;;;17.37;;
2119;SDS011;1066;52.540;13.420;2022-07-22T04:50:31;22.67;;;20.53;;
2119;SDS011;1066;52.540;13.420;2022-07-22T04:52:56;25.07;;;22.50;;
2119;SDS011;1066;52.540;13.420;2022-07-22T04:55:21;22.57;;;20.37;;
2119;SDS011;1066;52.540;13.420;2022-07-22T04:57:47;27.23;;;24.57;;
2119;SDS011;1066;52.540;13.420;2022-07-22T05:00:12;20.23;;;18.13;;
2119;SDS011;1066;52.540;13.420;2022-07-22T05:02:37;15.50;;;14.10;;
2119;SDS011;1066;52.540;13.420;2022-07-22T05:05:03;17.23;;;15.63;;
2119;SDS011;1066;52.540;13.420;2022-07-22T05:07:28;15.70;;;14.30;;
2119;SDS011;1066;52.540;13.420;2022-07-22T05:09:53;16.03;;;14.43;;
2119;SDS011;1066;52.540;13.420;2022-07-22T05:12:18;15.73;;;14.23;;
2119;SDS011;1066;52.540;13.420;2022-07-22T05:14:43;15.10;;;13.70;;
2119;SDS011;1066;52.540;13.420;2022-07-22T05:17:10;16.10;;;14.13;;
2119;SDS011;1066;52.540;13.420;2022-07-22T05:19:37;15.33;;;13.70;;
2119;SDS011;1066;52.540;13.420;2022-07-22T05:22:02;16.07;;;14.10;;
2119;SDS011;1066;52.540;13.420;2022-07-22T05:24:27;15.53;;;13.93;;
2119;SDS011;1066;52.540;13.420;2022-07-22T05:26:53;14.97;;;13.30;;
2119;SDS011;1066;52.540;13.420;2022-07-22T05:29:18;19.97;;;13.60;;
2119;SDS011;1066;52.540;13.420;2022-07-22T05:31:43;14.43;;;12.77;;
2119;SDS011;1066;52.540;13.420;2022-07-22T05:34:08;14.53;;;13.23;;
2119;SDS011;1066;52.540;13.420;2022-07-22T05:36:34;15.47;;;14.03;;
2119;SDS011;1066;52.540;13.420;2022-07-22T05:38:59;14.90;;;13.40;;
2119;SDS011;1066;52.540;13.420;2022-07-22T05:41:24;13.83;;;12.63;;
2119;SDS011;1066;52.540;13.420;2022-07-22T05:43:52;14.90;;;13.27;;
2119;SDS011;1066;52.540;13.420;2022-07-22T05:46:17;23.07;;;13.57;;
2119;SDS011;1066;52.540;13.420;2022-07-22T05:48:42;13.40;;;11.90;;
2119;SDS011;1066;52.540;13.420;2022-07-22T05:51:11;13.30;;;11.10;;
2119;SDS011;1066;52.540;13.420;2022-07-22T05:53:37;12.20;;;10.37;;
2119;SDS011;1066;52.540;13.420;2022-07-22T05:56:03;12.40;;;10.37;;
2119;SDS011;1066;52.540;13.420;2022-07-22T05:58:28;11.47;;;10.37;;
2119;SDS011;1066;52.540;13.420;2022-07-22T06:00:53;13.23;;;11.93;;
2119;SDS011;1066;52.540;13.420;2022-07-22T06:03:18;13.57;;;12.20;;
2119;SDS011;1066;52.540;13.420;2022-07-22T06:05:44;12.50;;;11.30;;
2119;SDS011;1066;52.540;13.420;2022-07-22T06:08:09;12.30;;;11.17;;
2119;SDS011;1066;52.540;13.420;2022-07-22T06:10:34;12.20;;;10.83;;
2119;SDS011;1066;52.540;13.420;2022-07-22T06:12:59;11.40;;;10.40;;
2119;SDS011;1066;52.540;13.420;2022-07-22T06:15:25;13.17;;;12.17;;
2119;SDS011;1066;52.540;13.420;2022-07-22T06:17:50;12.40;;;11.37;;
2119;SDS011;1066;52.540;13.420;2022-07-22T06:20:15;12.60;;;11.50;;
2119;SDS011;1066;52.540;13.420;2022-07-22T06:22:40;11.93;;;10.93;;
2119;SDS011;1066;52.540;13.420;2022-07-22T06:25:06;12.97;;;11.73;;
2119;SDS011;1066;52.540;13.420;2022-07-22T06:27:31;12.30;;;11.13;;
2119;SDS011;1066;52.540;13.420;2022-07-22T06:29:56;11.83;;;10.83;;
2119;SDS011;1066;52.540;13.420;2022-07-22T06:32:22;11.83;;;10.90;;
2119;SDS011;1066;52.540;13.420;2022-07-22T06:34:47;10.97;;;10.10;;
2119;SDS011;1066;52.540;13.420;2022-07-22T06:37:12;12.03;;;11.00;;
2119;SDS011;1066;52.540;13.420;2022-07-22T06:39:37;11.53;;;10.33;;
2119;SDS011;1066;52.540;13.420;2022-07-22T06:42:03;11.93;;;11.03;;
2119;SDS011;1066;52.540;13.420;2022-07-22T06:44:28;11.10;;;10.30;;
2119;SDS011;1066;52.540;13.420;2022-07-22T06:46:53;10.83;;;10.03;;
2119;SDS011;1066;52.540;13.420;2022-07-22T06:49:18;11.83;;;10.83;;
2119;SDS011;1066;52.540;13.420;2022-07-22T06:51:43;12.33;;;11.10;;
2119;SDS011;1066;52.540;13.420;2022-07-22T06:54:09;12.03;;;11.03;;
2119;SDS011;1066;52.540;13.420;2022-07-22T06:56:34;12.10;;;11.10;;
2119;SDS011;1066;52.540;13.420;2022-07-22T06:58:59;13.07;;;12.07;;
2119;SDS011;1066;52.540;13.420;2022-07-22T07:01:24;11.40;;;10.40;;
2119;SDS011;1066;52.540;13.420;2022-07-22T07:03:50;12.47;;;11.47;;
2119;SDS011;1066;52.540;13.420;2022-07-22T07:06:15;11.57;;;10.53;;
2119;SDS011;1066;52.540;13.420;2022-07-22T07:08:40;12.17;;;11.17;;
2119;SDS011;1066;52.540;13.420;2022-07-22T07:11:06;11.57;;;10.67;;
2119;SDS011;1066;52.540;13.420;2022-07-22T07:13:31;12.00;;;10.90;;
2119;SDS011;1066;52.540;13.420;2022-07-22T07:15:56;11.83;;;10.63;;
2119;SDS011;1066;52.540;13.420;2022-07-22T07:18:22;11.03;;;10.13;;
2119;SDS011;1066;52.540;13.420;2022-07-22T07:20:47;10.80;;;10.00;;
2119;SDS011;1066;52.540;13.420;2022-07-22T07:23:12;11.90;;;10.90;;
2119;SDS011;1066;52.540;13.420;2022-07-22T07:25:38;10.80;;;9.90;;
2119;SDS011;1066;52.540;13.420;2022-07-22T07:28:03;10.80;;;10.03;;
2119;SDS011;1066;52.540;13.420;2022-07-22T07:30:28;11.50;;;10.60;;
2119;SDS011;1066;52.540;13.420;2022-07-22T07:32:54;11.40;;;10.47;;
2119;SDS011;1066;52.540;13.420;2022-07-22T07:35:19;10.63;;;9.63;;
2119;SDS011;1066;52.540;13.420;2022-07-22T07:37:45;10.53;;;9.73;;
2119;SDS011;1066;52.540;13.420;2022-07-22T07:40:10;9.77;;;8.87;;
2119;SDS011;1066;52.540;13.420;2022-07-22T07:42:35;10.33;;;9.47;;
2119;SDS011;1066;52.540;13.420;2022-07-22T07:45:01;9.93;;;9.23;;
2119;SDS011;1066;52.540;13.420;2022-07-22T07:47:26;11.13;;;10.23;;
2119;SDS011;1066;52.540;13.420;2022-07-22T07:49:51;11.33;;;10.43;;
2119;SDS011;1066;52.540;13.420;2022-07-22T07:52:16;9.70;;;9.00;;
2119;SDS011;1066;52.540;13.420;2022-07-22T07:54:42;9.60;;;8.80;;
2119;SDS011;1066;52.540;13.420;2022-07-22T07:57:08;9.53;;;8.70;;
2119;SDS011;1066;52.540;13.420;2022-07-22T07:59:33;9.50;;;8.57;;
2119;SDS011;1066;52.540;13.420;2022-07-22T08:01:59;9.47;;;8.67;;
2119;SDS011;1066;52.540;13.420;2022-07-22T08:04:24;7.60;;;6.97;;
2119;SDS011;1066;52.540;13.420;2022-07-22T08:06:49;8.90;;;8.10;;
2119;SDS011;1066;52.540;13.420;2022-07-22T08:09:14;8.93;;;8.23;;
2119;SDS011;1066;52.540;13.420;2022-07-22T08:11:40;8.87;;;8.10;;
2119;SDS011;1066;52.540;13.420;2022-07-22T08:14:05;7.87;;;7.17;;
2119;SDS011;1066;52.540;13.420;2022-07-22T08:16:30;7.80;;;7.07;;
2119;SDS011;1066;52.540;13.420;2022-07-22T08:18:55;7.50;;;6.90;;
2119;SDS011;1066;52.540;13.420;2022-07-22T08:21:20;7.30;;;6.70;;
2119;SDS011;1066;52.540;13.420;2022-07-22T08:23:46;8.63;;;7.97;;
2119;SDS011;1066;52.540;13.420;2022-07-22T08:26:11;7.13;;;6.53;;
2119;SDS011;1066;52.540;13.420;2022-07-22T08:28:36;6.87;;;6.27;;
2119;SDS011;1066;52.540;13.420;2022-07-22T08:31:01;7.50;;;6.90;;
2119;SDS011;1066;52.540;13.420;2022-07-22T08:33:27;8.30;;;7.50;;
2119;SDS011;1066;52.540;13.420;2022-07-22T08:35:52;5.80;;;5.40;;
2119;SDS011;1066;52.540;13.420;2022-07-22T08:38:17;7.97;;;7.23;;
2119;SDS011;1066;52.540;13.420;2022-07-22T08:40:42;14.53;;;6.50;;
2119;SDS011;1066;52.540;13.420;2022-07-22T08:43:08;6.33;;;5.73;;
2119;SDS011;1066;52.540;13.420;2022-07-22T08:45:33;5.93;;;5.43;;
2119;SDS011;1066;52.540;13.420;2022-07-22T08:47:58;5.73;;;5.27;;
2119;SDS011;1066;52.540;13.420;2022-07-22T08:50:28;6.20;;;5.70;;
2119;SDS011;1066;52.540;13.420;2022-07-22T08:52:54;7.20;;;6.50;;
2119;SDS011;1066;52.540;13.420;2022-07-22T08:55:19;7.60;;;6.60;;
2119;SDS011;1066;52.540;13.420;2022-07-22T08:57:45;6.17;;;5.57;;
2119;SDS011;1066;52.540;13.420;2022-07-22T09:00:11;7.40;;;6.80;;
2119;SDS011;1066;52.540;13.420;2022-07-22T09:02:38;6.47;;;5.97;;
2119;SDS011;1066;52.540;13.420;2022-07-22T09:05:05;6.93;;;6.43;;
2119;SDS011;1066;52.540;13.420;2022-07-22T09:07:32;7.50;;;6.30;;
2119;SDS011;1066;52.540;13.420;2022-07-22T09:09:58;7.27;;;6.37;;
2119;SDS011;1066;52.540;13.420;2022-07-22T09:12:24;6.20;;;5.70;;
2119;SDS011;1066;52.540;13.420;2022-07-22T09:14:51;6.10;;;5.60;;
2119;SDS011;1066;52.540;13.420;2022-07-22T09:19:52;5.00;;;4.70;;
2119;SDS011;1066;52.540;13.420;2022-07-22T09:22:33;5.37;;;4.87;;
2119;SDS011;1066;52.540;13.420;2022-07-22T09:25:04;5.97;;;5.40;;
2119;SDS011;1066;52.540;13.420;2022-07-22T09:27:41;5.67;;;5.17;;
2119;SDS011;1066;52.540;13.420;2022-07-22T09:30:06;5.67;;;5.17;;
2119;SDS011;1066;52.540;13.420;2022-07-22T09:32:38;6.20;;;5.70;;
2119;SDS011;1066;52.540;13.420;2022-07-22T09:35:04;6.03;;;5.50;;
2119;SDS011;1066;52.540;13.420;2022-07-22T09:37:30;5.60;;;5.20;;
2119;SDS011;1066;52.540;13.420;2022-07-22T09:39:55;6.33;;;5.83;;
2119;SDS011;1066;52.540;13.420;2022-07-22T09:42:50;6.57;;;5.97;;
2119;SDS011;1066;52.540;13.420;2022-07-22T09:45:16;5.57;;;5.07;;
2119;SDS011;1066;52.540;13.420;2022-07-22T09:47:42;5.80;;;5.27;;
2119;SDS011;1066;52.540;13.420;2022-07-22T09:50:16;6.10;;;5.70;;
2119;SDS011;1066;52.540;13.420;2022-07-22T09:52:42;4.90;;;4.50;;
2119;SDS011;1066;52.540;13.420;2022-07-22T09:55:08;4.70;;;4.30;;
2119;SDS011;1066;52.540;13.420;2022-07-22T09:57:33;4.60;;;4.30;;
2119;SDS011;1066;52.540;13.420;2022-07-22T09:59:58;5.10;;;4.70;;
2119;SDS011;1066;52.540;13.420;2022-07-22T10:02:23;5.50;;;5.00;;
2119;SDS011;1066;52.540;13.420;2022-07-22T10:04:49;4.73;;;4.20;;
2119;SDS011;1066;52.540;13.420;2022-07-22T10:07:14;5.33;;;4.97;;
2119;SDS011;1066;52.540;13.420;2022-07-22T10:09:40;5.00;;;4.70;;
2119;SDS011;1066;52.540;13.420;2022-07-22T10:12:05;4.70;;;4.40;;
2119;SDS011;1066;52.540;13.420;2022-07-22T10:14:32;4.47;;;4.17;;
2119;SDS011;1066;52.540;13.420;2022-07-22T10:16:58;3.57;;;3.37;;
2119;SDS011;1066;52.540;13.420;2022-07-22T10:19:24;3.97;;;3.70;;
2119;SDS011;1066;52.540;13.420;2022-07-22T10:21:49;5.53;;;3.77;;
2119;SDS011;1066;52.540;13.420;2022-07-22T10:24:15;4.00;;;3.70;;
2119;SDS011;1066;52.540;13.420;2022-07-22T10:29:31;4.07;;;3.77;;
2119;SDS011;1066;52.540;13.420;2022-07-22T10:34:41;3.93;;;3.63;;
2119;SDS011;1066;52.540;13.420;2022-07-22T10:40:12;3.77;;;3.57;;
2119;SDS011;1066;52.540;13.420;2022-07-22T10:45:29;3.70;;;3.47;;
2119;SDS011;1066;52.540;13.420;2022-07-22T10:47:56;3.70;;;3.40;;
2119;SDS011;1066;52.540;13.420;2022-07-22T10:53:00;4.20;;;3.80;;
2119;SDS011;1066;52.540;13.420;2022-07-22T10:55:26;3.60;;;3.40;;
2119;SDS011;1066;52.540;13.420;2022-07-22T10:57:52;4.20;;;3.80;;
2119;SDS011;1066;52.540;13.420;2022-07-22T11:00:17;4.17;;;3.87;;
2119;SDS011;1066;52.540;13.420;2022-07-22T11:02:42;3.40;;;3.13;;
2119;SDS011;1066;52.540;13.420;2022-07-22T11:05:08;4.10;;;3.70;;
2119;SDS011;1066;52.540;13.420;2022-07-22T11:07:33;3.53;;;3.33;;
2119;SDS011;1066;52.540;13.420;2022-07-22T11:10:12;3.73;;;3.43;;
2119;SDS011;1066;52.540;13.420;2022-07-22T11:12:38;4.03;;;3.73;;
2119;SDS011;1066;52.540;13.420;2022-07-22T11:15:03;4.10;;;3.80;;
2119;SDS011;1066;52.540;13.420;2022-07-22T11:17:31;4.77;;;4.37;;
2119;SDS011;1066;52.540;13.420;2022-07-22T11:19:59;5.20;;;4.70;;
2119;SDS011;1066;52.540;13.420;2022-07-22T11:22:25;4.83;;;4.53;;
2119;SDS011;1066;52.540;13.420;2022-07-22T11:24:50;5.40;;;5.00;;
2119;SDS011;1066;52.540;13.420;2022-07-22T11:27:16;5.47;;;4.97;;
2119;SDS011;1066;52.540;13.420;2022-07-22T11:29:42;5.20;;;4.80;;
2119;SDS011;1066;52.540;13.420;2022-07-22T11:32:11;5.37;;;4.97;;
2119;SDS011;1066;52.540;13.420;2022-07-22T11:34:38;5.73;;;5.33;;
2119;SDS011;1066;52.540;13.420;2022-07-22T11:37:07;5.90;;;5.40;;
2119;SDS011;1066;52.540;13.420;2022-07-22T11:39:32;4.83;;;4.47;;
2119;SDS011;1066;52.540;13.420;2022-07-22T11:41:58;5.33;;;4.93;;
2119;SDS011;1066;52.540;13.420;2022-07-22T11:44:28;5.50;;;5.00;;
2119;SDS011;1066;52.540;13.420;2022-07-22T11:46:54;4.97;;;4.60;;
2119;SDS011;1066;52.540;13.420;2022-07-22T11:49:23;6.20;;;5.70;;
2119;SDS011;1066;52.540;13.420;2022-07-22T11:51:49;5.70;;;5.27;;
2119;SDS011;1066;52.540;13.420;2022-07-22T11:54:15;6.03;;;4.23;;
2119;SDS011;1066;52.540;13.420;2022-07-22T11:56:40;5.70;;;5.07;;
2119;SDS011;1066;52.540;13.420;2022-07-22T11:59:06;4.83;;;4.50;;
2119;SDS011;1066;52.540;13.420;2022-07-22T12:01:33;4.70;;;4.30;;
2119;SDS011;1066;52.540;13.420;2022-07-22T12:03:59;5.10;;;4.70;;
2119;SDS011;1066;52.540;13.420;2022-07-22T12:06:26;4.33;;;4.03;;
2119;SDS011;1066;52.540;13.420;2022-07-22T12:08:53;5.10;;;4.60;;
2119;SDS011;1066;52.540;13.420;2022-07-22T12:11:20;4.57;;;4.27;;
2119;SDS011;1066;52.540;13.420;2022-07-22T12:13:46;4.53;;;4.23;;
2119;SDS011;1066;52.540;13.420;2022-07-22T12:16:19;4.53;;;4.20;;
2119;SDS011;1066;52.540;13.420;2022-07-22T12:18:49;4.50;;;4.10;;
2119;SDS011;1066;52.540;13.420;2022-07-22T12:21:15;4.00;;;3.67;;
2119;SDS011;1066;52.540;13.420;2022-07-22T12:23:41;4.50;;;3.80;;
2119;SDS011;1066;52.540;13.420;2022-07-22T12:26:14;3.63;;;3.33;;
2119;SDS011;1066;52.540;13.420;2022-07-22T12:28:39;3.60;;;3.30;;
2119;SDS011;1066;52.540;13.420;2022-07-22T12:31:04;3.50;;;3.30;;
2119;SDS011;1066;52.540;13.420;2022-07-22T12:33:30;3.53;;;3.33;;
2119;SDS011;1066;52.540;13.420;2022-07-22T12:36:05;4.70;;;4.30;;
2119;SDS011;1066;52.540;13.420;2022-07-22T12:38:31;4.27;;;3.73;;
2119;SDS011;1066;52.540;13.420;2022-07-22T12:40:56;4.63;;;4.30;;
2119;SDS011;1066;52.540;13.420;2022-07-22T12:43:24;4.10;;;3.77;;
2119;SDS011;1066;52.540;13.420;2022-07-22T12:45:50;3.80;;;3.50;;
2119;SDS011;1066;52.540;13.420;2022-07-22T12:48:15;3.87;;;3.57;;
2119;SDS011;1066;52.540;13.420;2022-07-22T12:50:43;3.77;;;3.47;;
2119;SDS011;1066;52.540;13.420;2022-07-22T12:53:16;3.47;;;3.17;;
2119;SDS011;1066;52.540;13.420;2022-07-22T12:55:46;3.50;;;3.23;;
2119;SDS011;1066;52.540;13.420;2022-07-22T12:58:12;3.30;;;3.10;;
2119;SDS011;1066;52.540;13.420;2022-07-22T13:00:42;4.10;;;2.73;;
2119;SDS011;1066;52.540;13.420;2022-07-22T13:03:07;2.97;;;2.60;;
2119;SDS011;1066;52.540;13.420;2022-07-22T13:05:32;3.30;;;3.10;;
2119;SDS011;1066;52.540;13.420;2022-07-22T13:07:59;2.90;;;2.70;;
2119;SDS011;1066;52.540;13.420;2022-07-22T13:10:25;2.93;;;2.53;;
2119;SDS011;1066;52.540;13.420;2022-07-22T13:12:51;2.90;;;2.70;;
2119;SDS011;1066;52.540;13.420;2022-07-22T13:15:17;2.90;;;2.60;;
2119;SDS011;1066;52.540;13.420;2022-07-22T13:17:42;3.10;;;2.90;;
2119;SDS011;1066;52.540;13.420;2022-07-22T13:20:08;2.67;;;2.47;;
2119;SDS011;1066;52.540;13.420;2022-07-22T13:22:33;4.03;;;3.23;;
2119;SDS011;1066;52.540;13.420;2022-07-22T13:24:59;3.03;;;2.73;;
2119;SDS011;1066;52.540;13.420;2022-07-22T13:27:24;2.90;;;2.70;;
2119;SDS011;1066;52.540;13.420;2022-07-22T13:29:49;3.70;;;3.00;;
2119;SDS011;1066;52.540;13.420;2022-07-22T13:32:14;2.70;;;2.40;;
2119;SDS011;1066;52.540;13.420;2022-07-22T13:34:40;2.60;;;2.40;;
2119;SDS011;1066;52.540;13.420;2022-07-22T13:37:05;2.53;;;2.27;;
2119;SDS011;1066;52.540;13.420;2022-07-22T13:39:30;2.57;;;2.37;;
2119;SDS011;1066;52.540;13.420;2022-07-22T13:41:56;2.57;;;2.23;;
2119;SDS011;1066;52.540;13.420;2022-07-22T13:44:21;2.57;;;2.37;;
2119;SDS011;1066;52.540;13.420;2022-07-22T13:46:46;2.70;;;2.50;;
2119;SDS011;1066;52.540;13.420;2022-07-22T13:49:13;2.50;;;2.30;;
2119;SDS011;1066;52.540;13.420;2022-07-22T13:51:38;2.60;;;2.40;;
2119;SDS011;1066;52.540;13.420;2022-07-22T13:54:03;2.40;;;2.20;;
2119;SDS011;1066;52.540;13.420;2022-07-22T13:56:29;3.33;;;2.67;;
2119;SDS011;1066;52.540;13.420;2022-07-22T13:58:55;3.40;;;2.50;;
2119;SDS011;1066;52.540;13.420;2022-07-22T14:01:20;3.53;;;2.87;;
2119;SDS011;1066;52.540;13.420;2022-07-22T14:03:45;2.50;;;2.30;;
2119;SDS011;1066;52.540;13.420;2022-07-22T14:06:10;2.90;;;2.40;;
2119;SDS011;1066;52.540;13.420;2022-07-22T14:08:36;2.30;;;2.20;;
2119;SDS011;1066;52.540;13.420;2022-07-22T14:11:01;2.90;;;2.20;;
2119;SDS011;1066;52.540;13.420;2022-07-22T14:13:27;2.97;;;2.23;;
2119;SDS011;1066;52.540;13.420;2022-07-22T14:15:52;2.63;;;2.43;;
2119;SDS011;1066;52.540;13.420;2022-07-22T14:18:17;3.53;;;3.10;;
2119;SDS011;1066;52.540;13.420;2022-07-22T14:20:42;2.97;;;2.77;;
2119;SDS011;1066;52.540;13.420;2022-07-22T14:23:08;2.77;;;2.57;;
2119;SDS011;1066;52.540;13.420;2022-07-22T14:25:36;3.03;;;2.70;;
2119;SDS011;1066;52.540;13.420;2022-07-22T14:28:03;3.17;;;2.20;;
2119;SDS011;1066;52.540;13.420;2022-07-22T14:30:28;5.10;;;3.03;;
2119;SDS011;1066;52.540;13.420;2022-07-22T14:32:54;2.43;;;2.23;;
2119;SDS011;1066;52.540;13.420;2022-07-22T14:35:19;2.80;;;2.60;;
2119;SDS011;1066;52.540;13.420;2022-07-22T14:37:45;2.60;;;2.40;;
2119;SDS011;1066;52.540;13.420;2022-07-22T14:40:10;2.63;;;2.43;;
2119;SDS011;1066;52.540;13.420;2022-07-22T14:42:35;2.37;;;2.10;;
2119;SDS011;1066;52.540;13.420;2022-07-22T14:45:01;2.57;;;2.20;;
2119;SDS011;1066;52.540;13.420;2022-07-22T14:47:26;3.70;;;2.60;;
2119;SDS011;1066;52.540;13.420;2022-07-22T14:49:52;4.00;;;2.40;;
2119;SDS011;1066;52.540;13.420;2022-07-22T14:52:17;2.20;;;2.03;;
2119;SDS011;1066;52.540;13.420;2022-07-22T14:54:42;3.63;;;2.47;;
2119;SDS011;1066;52.540;13.420;2022-07-22T14:57:08;2.50;;;2.30;;